Time;durP1;ratioP1;P1;durP2;ratioP2;P2;SDS_P1;SDS_P2;PMS_P1;PMS_P2;Temp;Humidity;BMP_temperature;BMP_pressure;BME280_temperature;BME280_humidity;BME280_pressure;Samples;Min_cycle;Max_cycle;Signal;HPM_P1;HPM_P2
2023/04/10 00:01:18;;;;;;;;;16.25;15.25;;;;;14.62;45.75;101234.59;4959831;28;45483;-63
2023/04/10 00:03:44;;;;;;;;;13.50;13.00;;;;;14.83;45.67;101283.06;4977037;28;45381;-63
2023/04/10 00:06:10;;;;;;;;;14.75;13.50;;;;;14.73;45.75;101258.69;4976142;28;45318;-62
2023/04/10 00:08:36;;;;;;;;;14.75;14.50;;;;;14.84;45.62;101270.13;4975983;28;45460;-62
2023/04/10 00:11:02;;;;;;;;;19.50;15.25;;;;;14.85;45.36;101274.56;4977138;28;45632;-63
2023/04/10 00:13:28;;;;;;;;;14.60;11.80;;;;;14.75;45.78;101251.06;4975273;28;45647;-63
2023/04/10 00:15:54;;;;;;;;;15.00;15.00;;;;;14.85;45.61;101269.03;4976345;28;45338;-64
2023/04/10 00:18:20;;;;;;;;;16.80;13.20;;;;;14.85;45.52;101272.66;4959215;28;45423;-63
2023/04/10 00:20:45;;;;;;;;;15.25;13.75;;;;;14.61;45.63;101224.59;4976011;28;46064;-63
2023/04/10 00:23:11;;;;;;;;;16.75;16.00;;;;;14.89;45.56;101262.00;4975216;28;45351;-62
2023/04/10 00:25:37;;;;;;;;;15.75;15.25;;;;;14.89;45.51;101262.00;4975427;28;45321;-62
2023/04/10 00:28:02;;;;;;;;;18.25;15.50;;;;;14.82;45.51;101261.19;4959147;28;45625;-63
2023/04/10 00:30:28;;;;;;;;;14.75;14.75;;;;;14.81;45.54;101260.38;4976228;28;47646;-63
2023/04/10 00:32:54;;;;;;;;;17.00;14.25;;;;;14.83;45.41;101251.84;4958481;28;45405;-62
2023/04/10 00:35:19;;;;;;;;;13.00;12.50;;;;;14.71;45.90;101230.47;4974995;28;45372;-63
2023/04/10 00:37:45;;;;;;;;;14.75;13.00;;;;;14.74;45.72;101243.84;4958529;28;45353;-63
2023/04/10 00:40:11;;;;;;;;;12.50;11.75;;;;;14.54;45.64;101205.34;4957522;28;47734;-63
2023/04/10 00:42:37;;;;;;;;;13.40;12.80;;;;;14.49;45.34;101197.75;4986576;28;45610;-62
2023/04/10 00:45:03;;;;;;;;;15.00;14.00;;;;;14.73;45.78;101233.81;4977678;28;45434;-63
2023/04/10 00:47:28;;;;;;;;;12.80;11.60;;;;;14.74;45.89;101237.47;4994402;28;45407;-62
2023/04/10 00:49:54;;;;;;;;;16.00;15.25;;;;;14.71;45.78;101230.47;4977958;28;45794;-62
2023/04/10 00:52:19;;;;;;;;;12.00;12.00;;;;;14.57;46.32;101213.16;4995379;28;45458;-62
2023/04/10 00:54:45;;;;;;;;;17.00;15.50;;;;;14.59;46.01;101223.97;4994110;28;45546;-63
2023/04/10 00:57:11;;;;;;;;;16.25;14.00;;;;;14.57;46.05;101220.63;4993865;28;45668;-62
2023/04/10 00:59:36;;;;;;;;;7.50;6.25;;;;;14.55;46.60;101223.59;4994143;28;45538;-66
2023/04/10 01:02:02;;;;;;;;;15.00;13.50;;;;;14.56;45.92;101210.66;4977844;28;45799;-62
2023/04/10 01:04:27;;;;;;;;;10.25;10.25;;;;;14.56;46.33;101210.66;4994185;28;45287;-63
2023/04/10 01:07:20;;;;;;;;;14.25;13.00;;;;;14.47;46.25;101204.56;4977688;28;45345;-63
2023/04/10 01:10:03;;;;;;;;;15.00;12.20;;;;;14.23;46.34;101166.53;4980763;28;47059;-62
2023/04/10 01:12:52;;;;;;;;;14.60;12.60;;;;;14.49;46.79;101199.66;4961385;28;45735;-61
2023/04/10 01:15:20;;;;;;;;;15.20;13.20;;;;;14.54;46.80;101205.34;4985892;28;45241;-63
2023/04/10 01:17:54;;;;;;;;;19.40;16.40;;;;;14.57;46.87;101198.53;4977266;28;45572;-63
2023/04/10 01:20:22;;;;;;;;;12.40;11.20;;;;;14.59;46.66;101196.38;4992829;28;47073;-63
2023/04/10 01:23:25;;;;;;;;;14.40;12.80;;;;;14.57;46.75;101204.03;4992943;28;45455;-63
2023/04/10 01:26:00;;;;;;;;;16.20;16.20;;;;;14.51;46.72;101191.97;4994695;28;45368;-63
2023/04/10 01:29:00;;;;;;;;;16.60;14.20;;;;;14.54;46.80;101198.97;4978365;28;45197;-63
2023/04/10 01:31:36;;;;;;;;;15.80;12.00;;;;;14.55;46.52;101192.34;4976942;28;47235;-62
2023/04/10 01:34:10;;;;;;;;;12.60;12.20;;;;;14.47;46.72;101185.22;4976585;28;45464;-64
2023/04/10 01:36:48;;;;;;;;;13.00;12.40;;;;;14.42;46.85;101185.91;4993009;28;45295;-63
2023/04/10 01:39:17;;;;;;;;;12.60;12.60;;;;;14.48;47.21;101196.03;4993243;28;45399;-62
2023/04/10 01:41:43;;;;;;;;;12.60;12.60;;;;;14.46;46.99;101195.41;4976448;28;46822;-63
2023/04/10 01:44:10;;;;;;;;;13.80;13.00;;;;;14.46;46.57;101192.66;4941214;28;45441;-62
2023/04/10 01:46:36;;;;;;;;;12.80;12.80;;;;;14.19;46.99;101142.38;4973879;28;45459;-62
2023/04/10 01:49:02;;;;;;;;;14.00;13.00;;;;;14.48;46.96;101184.16;4973924;28;45443;-62
2023/04/10 01:51:29;;;;;;;;;17.00;13.25;;;;;14.40;47.08;101179.75;4942265;28;46338;-62
2023/04/10 01:53:55;;;;;;;;;15.40;12.80;;;;;14.41;46.81;101178.69;4961214;28;45307;-62
2023/04/10 01:56:20;;;;;;;;;12.75;10.50;;;;;14.30;46.78;101158.19;4960938;28;45741;-62
2023/04/10 01:58:46;;;;;;;;;14.25;11.75;;;;;14.34;47.21;101167.72;4961102;28;45359;-62
2023/04/10 02:01:18;;;;;;;;;15.25;14.00;;;;;14.32;47.01;101164.34;4960208;28;46129;-62
2023/04/10 02:03:44;;;;;;;;;14.60;12.80;;;;;14.18;46.70;101135.16;4917568;28;45476;-62
2023/04/10 02:06:34;;;;;;;;;18.50;15.50;;;;;14.41;47.03;101172.31;4974561;28;45380;-62
2023/04/10 02:09:20;;;;;;;;;17.00;17.00;;;;;14.18;47.01;101143.44;4977749;28;45331;-62
2023/04/10 02:12:03;;;;;;;;;15.00;13.80;;;;;14.28;47.16;101163.09;4992554;28;46555;-62
2023/04/10 02:14:30;;;;;;;;;16.60;16.00;;;;;14.25;46.98;101165.47;4991985;28;45455;-63
2023/04/10 02:16:56;;;;;;;;;14.60;13.60;;;;;14.11;47.18;101151.78;4976274;28;45404;-64
2023/04/10 02:19:25;;;;;;;;;15.00;14.75;;;;;14.12;47.58;101145.19;4976590;28;45350;-62
2023/04/10 02:21:50;;;;;;;;;16.40;15.60;;;;;14.06;47.68;101135.91;4959713;28;49032;-63
2023/04/10 02:24:17;;;;;;;;;12.75;10.75;;;;;14.20;47.58;101155.94;4975758;28;45389;-64
2023/04/10 02:26:46;;;;;;;;;12.40;12.40;;;;;14.23;47.11;101154.63;4976407;28;45394;-63
2023/04/10 02:29:12;;;;;;;;;15.20;13.80;;;;;14.22;47.18;101147.44;4992838;28;45334;-62
2023/04/10 02:31:38;;;;;;;;;13.50;13.50;;;;;14.16;47.08;101140.91;4977234;28;46277;-62
2023/04/10 02:34:04;;;;;;;;;14.00;13.00;;;;;14.14;47.39;101133.94;4977293;28;45230;-62
2023/04/10 02:36:29;;;;;;;;;15.50;15.50;;;;;14.17;47.08;101145.34;4975993;28;45900;-62
2023/04/10 02:38:55;;;;;;;;;15.25;14.75;;;;;14.15;47.11;101143.91;4977345;28;45328;-62
2023/04/10 02:41:21;;;;;;;;;15.50;14.00;;;;;13.97;47.70;101115.16;4976815;28;46540;-63
2023/04/10 02:43:46;;;;;;;;;16.00;14.00;;;;;13.92;47.43;101118.59;4993186;28;45442;-62
2023/04/10 02:46:12;;;;;;;;;13.25;12.50;;;;;14.02;47.40;101136.56;4979281;28;45461;-63
2023/04/10 02:48:37;;;;;;;;;9.75;9.75;;;;;13.93;47.69;101112.00;4995397;28;45477;-63
2023/04/10 02:51:03;;;;;;;;;14.00;14.00;;;;;13.95;47.77;101126.44;4995904;28;45753;-62
2023/04/10 02:53:28;;;;;;;;;16.75;16.00;;;;;13.84;47.64;101121.66;4996569;28;45445;-62
2023/04/10 02:55:54;;;;;;;;;16.00;14.25;;;;;13.91;47.37;101135.38;4995483;28;45511;-62
2023/04/10 02:58:20;;;;;;;;;13.50;12.00;;;;;13.94;47.76;101129.44;4995389;28;45361;-62
2023/04/10 03:00:50;;;;;;;;;13.20;12.60;;;;;13.73;47.19;101092.03;4996357;28;46598;-63
2023/04/10 03:03:17;;;;;;;;;13.20;11.60;;;;;13.68;47.60;101092.72;4994510;28;45494;-62
2023/04/10 03:05:42;;;;;;;;;13.80;13.80;;;;;13.81;47.47;101105.53;4995403;28;45464;-63
2023/04/10 03:08:08;;;;;;;;;14.25;12.25;;;;;13.22;47.61;101020.25;4996639;28;45572;-62
2023/04/10 03:10:33;;;;;;;;;13.25;12.25;;;;;13.79;48.06;101118.72;4994748;28;46946;-62
2023/04/10 03:12:59;;;;;;;;;15.00;14.50;;;;;13.77;47.94;101123.63;4994339;28;46060;-63
2023/04/10 03:15:24;;;;;;;;;16.00;12.25;;;;;13.71;48.14;101113.47;4996280;28;45364;-63
2023/04/10 03:17:50;;;;;;;;;13.25;13.00;;;;;13.69;48.15;101109.03;4995336;28;45644;-61
2023/04/10 03:20:16;;;;;;;;;16.00;16.00;;;;;13.55;48.28;101096.38;4977707;28;45941;-63
2023/04/10 03:22:41;;;;;;;;;15.00;14.25;;;;;13.63;48.14;101109.94;4994751;28;45302;-62
2023/04/10 03:25:07;;;;;;;;;13.50;10.75;;;;;13.61;48.26;101105.69;4995973;28;45351;-62
2023/04/10 03:27:33;;;;;;;;;13.00;13.00;;;;;13.62;48.40;101101.88;4996181;28;45339;-62
2023/04/10 03:30:00;;;;;;;;;15.80;13.40;;;;;13.42;48.74;101072.50;4995641;28;46186;-63
2023/04/10 03:32:27;;;;;;;;;14.00;13.40;;;;;13.60;48.54;101096.56;4994595;28;45975;-62
2023/04/10 03:34:52;;;;;;;;;15.20;14.20;;;;;13.59;48.66;101111.44;4994491;28;45620;-63
2023/04/10 03:37:18;;;;;;;;;12.75;12.75;;;;;13.51;48.50;101097.94;4995672;28;45413;-63
2023/04/10 03:39:44;;;;;;;;;15.75;15.00;;;;;13.32;48.94;101070.22;4995295;28;45496;-62
2023/04/10 03:42:10;;;;;;;;;15.25;14.25;;;;;13.48;48.63;101103.88;4993319;28;45484;-62
2023/04/10 03:44:36;;;;;;;;;12.00;11.20;;;;;13.40;49.12;101094.78;4975712;28;45423;-62
2023/04/10 03:47:02;;;;;;;;;13.20;12.80;;;;;13.38;48.89;101096.06;4976417;28;45288;-62
2023/04/10 03:49:27;;;;;;;;;15.25;12.75;;;;;13.37;48.89;101094.38;4974321;28;47735;-62
2023/04/10 03:51:53;;;;;;;;;15.00;13.00;;;;;13.36;48.83;101092.69;4975912;28;45209;-62
2023/04/10 03:54:18;;;;;;;;;11.50;11.25;;;;;13.32;48.91;101086.78;4974331;28;45296;-62
2023/04/10 03:56:44;;;;;;;;;13.00;11.75;;;;;13.31;48.95;101087.84;4974712;28;45505;-62
2023/04/10 03:59:09;;;;;;;;;12.25;11.75;;;;;13.31;49.21;101076.81;4975601;28;46035;-62
2023/04/10 04:01:35;;;;;;;;;15.25;14.25;;;;;13.26;49.65;101076.63;4974209;28;45312;-62
2023/04/10 04:04:00;;;;;;;;;6.75;6.75;;;;;13.17;49.40;101075.22;4975580;28;45292;-62
2023/04/10 04:06:26;;;;;;;;;12.75;11.50;;;;;12.98;49.97;101040.13;4974870;28;45422;-62
2023/04/10 04:08:51;;;;;;;;;13.00;11.25;;;;;13.15;49.81;101069.91;4957890;28;47470;-62
2023/04/10 04:11:17;;;;;;;;;14.75;13.25;;;;;13.16;49.73;101066.09;4975451;28;45323;-62
2023/04/10 04:13:42;;;;;;;;;17.25;14.75;;;;;13.14;49.93;101074.56;4974810;28;45479;-62
2023/04/10 04:16:09;;;;;;;;;12.50;12.50;;;;;13.11;49.96;101076.94;4975492;28;45342;-62
2023/04/10 04:18:34;;;;;;;;;18.60;15.60;;;;;13.09;49.62;101066.16;4973994;28;45949;-62
2023/04/10 04:21:00;;;;;;;;;13.25;13.00;;;;;13.08;50.10;101072.69;4975364;28;45309;-62
2023/04/10 04:23:25;;;;;;;;;12.50;12.50;;;;;13.15;49.93;101078.19;4975431;28;45228;-63
2023/04/10 04:25:53;;;;;;;;;13.75;11.75;;;;;13.13;49.91;101074.81;4974350;28;45326;-62
2023/04/10 04:28:18;;;;;;;;;14.00;12.00;;;;;13.17;49.88;101086.25;4975035;28;45809;-62
2023/04/10 04:30:44;;;;;;;;;13.50;13.00;;;;;12.98;49.73;101055.81;4975266;28;46181;-62
2023/04/10 04:33:09;;;;;;;;;13.50;13.50;;;;;13.02;49.59;101066.16;4973854;28;45356;-66
2023/04/10 04:35:35;;;;;;;;;13.50;11.50;;;;;13.11;49.52;101076.94;4975186;28;45299;-62
2023/04/10 04:38:00;;;;;;;;;14.00;14.00;;;;;13.18;49.38;101090.69;4957552;28;48132;-62
2023/04/10 04:40:26;;;;;;;;;14.75;14.00;;;;;13.13;50.04;101085.84;4974932;28;45351;-62
2023/04/10 04:42:51;;;;;;;;;12.75;11.50;;;;;13.10;49.90;101092.63;4982862;28;45419;-62
2023/04/10 04:45:17;;;;;;;;;10.25;9.50;;;;;13.11;49.80;101085.19;4994875;28;45488;-62
2023/04/10 04:47:42;;;;;;;;;11.50;11.00;;;;;12.85;49.84;101043.81;4993842;28;46278;-62
2023/04/10 04:50:08;;;;;;;;;17.50;14.75;;;;;13.08;49.94;101091.16;4994921;28;45417;-62
2023/04/10 04:52:34;;;;;;;;;13.75;12.50;;;;;13.09;49.85;101092.84;4994816;28;45363;-62
2023/04/10 04:55:00;;;;;;;;;12.00;12.00;;;;;13.09;49.91;101099.22;4993465;28;45434;-63
2023/04/10 04:57:25;;;;;;;;;9.75;9.75;;;;;13.08;50.02;101085.66;4994680;28;45965;-62
2023/04/10 04:59:51;;;;;;;;;13.50;12.50;;;;;13.10;49.92;101091.78;4976995;28;45461;-61
2023/04/10 05:02:17;;;;;;;;;11.75;11.75;;;;;13.10;49.68;101097.28;4994655;28;45410;-61
2023/04/10 05:04:43;;;;;;;;;13.60;13.20;;;;;13.09;49.68;101087.34;4994866;28;45224;-62
2023/04/10 05:07:10;;;;;;;;;17.40;14.00;;;;;13.19;49.99;101101.50;4994232;28;45401;-63
2023/04/10 05:09:35;;;;;;;;;11.25;11.25;;;;;13.13;49.99;101094.09;4994064;28;45364;-63
2023/04/10 05:12:02;;;;;;;;;12.75;11.00;;;;;13.20;49.83;101094.06;4992994;28;45391;-63
2023/04/10 05:14:28;;;;;;;;;12.80;11.40;;;;;13.22;49.92;101094.66;4993045;28;45576;-63
2023/04/10 05:16:53;;;;;;;;;12.75;12.50;;;;;12.98;50.04;101061.31;4994294;28;45679;-65
2023/04/10 05:19:19;;;;;;;;;13.25;12.75;;;;;13.17;49.83;101092.59;4994277;28;45259;-63
2023/04/10 05:21:44;;;;;;;;;16.75;12.50;;;;;13.19;49.94;101101.50;4994181;28;45243;-63
2023/04/10 05:24:10;;;;;;;;;9.50;9.50;;;;;13.15;50.29;101103.81;4992769;28;45572;-63
2023/04/10 05:26:36;;;;;;;;;12.75;11.75;;;;;13.18;50.52;101099.78;4996169;28;46981;-63
2023/04/10 05:29:01;;;;;;;;;13.25;12.25;;;;;13.18;50.32;101098.94;4997739;28;45411;-63
2023/04/10 05:31:27;;;;;;;;;12.00;12.00;;;;;13.19;50.21;101107.00;4997753;28;45423;-61
2023/04/10 05:33:52;;;;;;;;;12.25;10.75;;;;;13.16;50.48;101112.94;4997940;28;45500;-62
2023/04/10 05:36:18;;;;;;;;;11.75;11.75;;;;;13.11;50.19;101113.59;4995766;28;47244;-62
2023/04/10 05:38:43;;;;;;;;;13.00;12.00;;;;;13.18;50.20;101121.00;4997796;28;45603;-61
2023/04/10 05:41:09;;;;;;;;;10.75;9.75;;;;;13.24;50.26;101122.88;4998004;28;45337;-62
2023/04/10 05:43:35;;;;;;;;;12.00;11.00;;;;;13.24;50.07;101126.47;4984419;28;45521;-63
2023/04/10 05:46:00;;;;;;;;;7.40;7.40;;;;;13.24;50.60;101123.69;4976453;28;49102;-62
2023/04/10 05:48:27;;;;;;;;;11.75;11.75;;;;;13.19;50.40;101093.22;4977831;28;45312;-63
2023/04/10 05:50:53;;;;;;;;;11.60;10.00;;;;;13.20;49.90;101083.88;4976515;28;45474;-63
2023/04/10 05:53:18;;;;;;;;;14.25;14.00;;;;;13.12;50.51;101079.47;4977890;28;45475;-61
2023/04/10 05:55:44;;;;;;;;;13.00;12.50;;;;;13.27;50.17;101105.88;4976217;28;45454;-63
2023/04/10 05:58:11;;;;;;;;;19.25;14.25;;;;;13.31;50.14;101101.63;4945701;28;45497;-65
2023/04/10 06:00:36;;;;;;;;;19.40;15.60;;;;;13.33;50.51;101102.25;4992266;28;45929;-62
2023/04/10 06:03:02;;;;;;;;;12.50;11.50;;;;;13.23;50.31;101088.13;4977999;28;46017;-62
2023/04/10 06:05:28;;;;;;;;;12.00;12.00;;;;;13.31;50.39;101101.63;4977329;28;45367;-62
2023/04/10 06:07:53;;;;;;;;;12.50;12.25;;;;;13.28;50.17;101097.41;4977863;28;45435;-62
2023/04/10 06:10:19;;;;;;;;;16.75;12.00;;;;;13.12;50.63;101062.06;4992385;28;45382;-64
2023/04/10 06:12:44;;;;;;;;;15.50;14.25;;;;;13.36;50.36;101098.19;4977407;28;45199;-66
2023/04/10 06:15:10;;;;;;;;;14.00;13.75;;;;;13.35;50.09;101102.84;4977094;28;45320;-62
2023/04/10 06:17:42;;;;;;;;;12.25;11.00;;;;;13.38;50.23;101109.84;4976927;28;45355;-61
2023/04/10 06:20:08;;;;;;;;;12.40;11.00;;;;;13.38;50.27;101104.31;4977264;28;45254;-63
2023/04/10 06:22:33;;;;;;;;;13.20;13.00;;;;;13.42;50.33;101105.59;4975390;28;45376;-61
2023/04/10 06:24:59;;;;;;;;;16.25;14.50;;;;;13.48;50.10;101112.16;4975586;28;45523;-62
2023/04/10 06:27:24;;;;;;;;;12.00;11.75;;;;;13.51;50.35;101114.47;4975806;28;45421;-62
2023/04/10 06:29:50;;;;;;;;;13.00;13.00;;;;;13.51;49.95;101125.50;4975945;28;45358;-62
2023/04/10 06:32:15;;;;;;;;;14.50;13.75;;;;;13.48;50.33;101103.88;4975894;28;45368;-61
2023/04/10 06:34:41;;;;;;;;;13.25;13.00;;;;;13.52;50.29;101111.50;4976773;28;45915;-61
2023/04/10 06:37:06;;;;;;;;;13.25;13.00;;;;;13.53;50.38;101123.34;4976348;28;45356;-61
2023/04/10 06:39:32;;;;;;;;;11.00;11.00;;;;;13.58;50.29;101118.03;4977120;28;45239;-64
2023/04/10 06:41:57;;;;;;;;;13.50;12.00;;;;;13.58;49.78;101108.91;4992173;28;45335;-62
2023/04/10 06:44:23;;;;;;;;;19.00;16.75;;;;;13.60;50.31;101115.88;4994640;28;46538;-62
2023/04/10 06:46:48;;;;;;;;;14.25;11.00;;;;;13.55;49.90;101112.94;4997173;28;45446;-63
2023/04/10 06:49:14;;;;;;;;;14.00;13.00;;;;;13.57;50.43;101112.72;4996578;28;45442;-61
2023/04/10 06:51:39;;;;;;;;;11.75;11.25;;;;;13.59;50.18;101107.81;4996532;28;45440;-64
2023/04/10 06:54:05;;;;;;;;;12.75;12.75;;;;;13.58;49.78;101101.47;4995026;28;45607;-62
2023/04/10 06:56:30;;;;;;;;;11.75;11.75;;;;;13.59;50.45;101099.53;4996474;28;45378;-62
2023/04/10 06:58:56;;;;;;;;;14.75;13.00;;;;;13.60;50.06;101091.06;4994720;28;45434;-62
2023/04/10 07:01:22;;;;;;;;;12.00;12.00;;;;;13.57;50.09;101082.38;4996695;28;45295;-63
2023/04/10 07:03:47;;;;;;;;;12.00;11.25;;;;;13.64;50.32;101106.09;4994932;28;45422;-62
2023/04/10 07:06:13;;;;;;;;;12.75;12.75;;;;;13.39;50.42;101048.97;4996288;28;45415;-63
2023/04/10 07:08:38;;;;;;;;;16.25;15.75;;;;;13.68;49.86;101074.22;4994971;28;45308;-63
2023/04/10 07:11:04;;;;;;;;;14.00;14.00;;;;;13.78;49.88;101083.94;4996303;28;45395;-62
2023/04/10 07:13:30;;;;;;;;;16.40;13.80;;;;;13.85;49.82;101090.22;4995887;28;46547;-64
2023/04/10 07:15:55;;;;;;;;;14.25;13.25;;;;;13.91;50.00;101080.19;4994318;28;45436;-63
2023/04/10 07:18:21;;;;;;;;;11.50;11.50;;;;;13.89;49.76;101074.94;4996457;28;45465;-62
2023/04/10 07:20:47;;;;;;;;;29.50;19.75;;;;;13.86;49.86;101067.09;4995143;28;45354;-63
2023/04/10 07:23:12;;;;;;;;;15.00;13.40;;;;;13.91;49.60;101070.00;4994426;28;48190;-62
2023/04/10 07:25:40;;;;;;;;;12.00;12.00;;;;;13.87;49.57;101074.28;4995688;28;45394;-63
2023/04/10 07:28:06;;;;;;;;;14.60;12.60;;;;;13.97;49.63;101071.00;4994968;28;45401;-61
2023/04/10 07:30:31;;;;;;;;;13.25;11.25;;;;;13.95;49.63;101073.16;4996491;28;45455;-62
2023/04/10 07:32:57;;;;;;;;;11.50;11.50;;;;;13.91;50.02;101058.13;4995738;28;46262;-62
2023/04/10 07:35:22;;;;;;;;;13.50;13.50;;;;;13.28;49.86;100955.97;4995716;28;46048;-62
2023/04/10 07:37:50;;;;;;;;;14.50;13.75;;;;;13.92;49.89;101060.66;4996095;28;45420;-63
2023/04/10 07:40:16;;;;;;;;;15.00;11.60;;;;;13.95;49.74;101051.94;4995605;28;45619;-61
2023/04/10 07:42:41;;;;;;;;;15.75;14.25;;;;;14.02;50.09;101062.03;4992358;28;45541;-61
2023/04/10 07:45:07;;;;;;;;;12.50;12.00;;;;;13.99;50.22;101068.03;4975037;28;45328;-63
2023/04/10 07:47:33;;;;;;;;;15.80;12.20;;;;;13.74;50.02;101022.00;4975858;28;45543;-62
2023/04/10 07:49:59;;;;;;;;;12.75;12.50;;;;;14.12;50.12;101065.16;4975530;28;45379;-62
2023/04/10 07:52:24;;;;;;;;;14.25;12.25;;;;;14.13;49.77;101066.81;4974622;28;45485;-63
2023/04/10 07:54:50;;;;;;;;;13.50;13.00;;;;;14.21;49.39;101063.75;4958701;28;45669;-63
2023/04/10 07:57:15;;;;;;;;;14.00;12.00;;;;;14.28;49.35;101060.94;4951802;28;45354;-64
2023/04/10 07:59:41;;;;;;;;;11.50;11.50;;;;;14.37;49.06;101058.72;4971403;28;45443;-62
2023/04/10 08:02:06;;;;;;;;;12.00;12.00;;;;;14.41;49.04;101048.06;4975964;28;45914;-63
2023/04/10 08:04:32;;;;;;;;;12.00;12.00;;;;;14.41;48.92;101040.59;4975794;28;45382;-64
2023/04/10 08:06:57;;;;;;;;;12.25;12.00;;;;;14.52;48.82;101040.91;4963689;28;45389;-62
2023/04/10 08:09:23;;;;;;;;;12.25;12.25;;;;;14.58;49.00;101045.53;4976321;28;45295;-63
2023/04/10 08:11:48;;;;;;;;;13.75;12.25;;;;;14.60;48.24;101044.22;4975798;28;46326;-63
2023/04/10 08:14:14;;;;;;;;;10.00;8.25;;;;;14.54;48.70;101033.25;4975001;28;45517;-63
2023/04/10 08:16:40;;;;;;;;;9.60;9.60;;;;;14.88;48.15;101072.38;4976137;28;45165;-63
2023/04/10 08:19:05;;;;;;;;;12.50;11.50;;;;;14.97;47.51;101076.50;4974570;28;45246;-63
2023/04/10 08:21:31;;;;;;;;;11.00;10.75;;;;;15.06;48.12;101070.66;4975777;28;45871;-62
2023/04/10 08:23:57;;;;;;;;;9.00;8.75;;;;;15.09;47.86;101073.78;4976062;28;45157;-64
2023/04/10 08:26:24;;;;;;;;;13.00;12.00;;;;;14.82;47.59;101029.09;4975905;28;45232;-63
2023/04/10 08:28:50;;;;;;;;;9.20;9.20;;;;;15.02;47.80;101057.31;4974858;28;45681;-62
2023/04/10 08:31:17;;;;;;;;;15.20;13.20;;;;;15.00;47.88;101056.69;4975696;28;45391;-62
2023/04/10 08:33:42;;;;;;;;;7.80;7.40;;;;;15.10;47.47;101061.66;4975823;28;45455;-63
2023/04/10 08:36:08;;;;;;;;;13.25;13.00;;;;;15.06;47.34;101041.09;4976081;28;45418;-63
2023/04/10 08:38:37;;;;;;;;;11.00;11.00;;;;;15.15;47.21;101060.94;4974660;28;45308;-63
2023/04/10 08:41:02;;;;;;;;;20.40;19.00;;;;;15.12;47.62;101061.41;4975816;28;45353;-61
2023/04/10 08:43:28;;;;;;;;;19.25;14.75;;;;;15.18;47.34;101054.94;4980371;28;45252;-62
2023/04/10 08:45:54;;;;;;;;;14.50;11.25;;;;;15.23;47.37;101057.00;4994077;28;45540;-63
2023/04/10 08:48:19;;;;;;;;;13.25;10.75;;;;;15.29;47.44;101067.97;4978636;28;45327;-61
2023/04/10 08:50:45;;;;;;;;;14.50;12.00;;;;;15.39;47.40;101072.09;4982297;28;45949;-64
2023/04/10 08:53:12;;;;;;;;;11.25;9.50;;;;;15.44;47.43;101080.53;4990158;28;45409;-61
2023/04/10 08:55:38;;;;;;;;;12.60;12.40;;;;;15.51;47.52;101078.50;4969940;28;45582;-62
2023/04/10 08:58:04;;;;;;;;;14.80;11.20;;;;;15.48;47.82;101069.81;4971632;28;45485;-63
2023/04/10 09:00:33;;;;;;;;;14.00;12.75;;;;;15.54;47.49;101071.66;4955199;28;47499;-62
2023/04/10 09:02:59;;;;;;;;;12.20;10.80;;;;;15.55;48.25;101065.88;4947607;28;45653;-62
2023/04/10 09:05:26;;;;;;;;;10.00;10.00;;;;;15.55;48.37;101057.59;4988030;28;45423;-63
2023/04/10 09:07:51;;;;;;;;;15.20;12.40;;;;;15.68;48.27;101066.72;4971798;28;45665;-62
2023/04/10 09:10:17;;;;;;;;;13.75;9.50;;;;;15.71;47.96;101063.50;4971034;28;48419;-61
2023/04/10 09:12:46;;;;;;;;;14.20;13.00;;;;;15.71;48.13;101058.78;4973759;28;45411;-63
2023/04/10 09:15:12;;;;;;;;;7.20;6.80;;;;;15.68;48.19;101053.75;4972604;28;45463;-62
2023/04/10 09:17:56;;;;;;;;;11.80;10.80;;;;;15.63;48.25;101048.06;4973103;28;45434;-61
2023/04/10 09:20:23;;;;;;;;;13.40;11.20;;;;;15.65;48.72;101047.84;4992553;28;45820;-63
2023/04/10 09:22:51;;;;;;;;;10.20;9.20;;;;;15.66;48.63;101049.53;4954619;28;45505;-62
2023/04/10 09:25:34;;;;;;;;;10.40;10.00;;;;;15.63;48.68;101041.72;4972888;28;45436;-63
2023/04/10 09:28:07;;;;;;;;;8.20;7.00;;;;;15.69;48.73;101040.75;4973977;28;45505;-64
2023/04/10 09:30:40;;;;;;;;;11.60;10.60;;;;;15.53;48.48;100995.28;4988378;28;47617;-63
2023/04/10 09:33:22;;;;;;;;;9.60;9.20;;;;;15.78;48.71;101027.38;4973392;28;45333;-64
2023/04/10 09:35:47;;;;;;;;;8.40;8.40;;;;;15.86;48.84;101016.81;4971293;28;45454;-63
2023/04/10 09:38:17;;;;;;;;;7.75;7.75;;;;;15.94;47.96;101009.25;4972534;28;45479;-63
2023/04/10 09:40:44;;;;;;;;;9.60;8.00;;;;;16.09;47.85;101017.06;4973607;28;46466;-63
2023/04/10 09:43:25;;;;;;;;;8.00;7.00;;;;;16.13;48.13;101009.97;4973903;28;45808;-63
2023/04/10 09:45:52;;;;;;;;;9.00;9.00;;;;;16.15;47.87;101004.16;4958368;28;45307;-63
2023/04/10 09:48:17;;;;;;;;;9.20;9.20;;;;;16.11;48.10;101007.44;4972216;28;45659;-63
2023/04/10 09:50:43;;;;;;;;;10.00;9.00;;;;;16.16;48.04;101008.66;4972548;28;46086;-64
2023/04/10 09:53:18;;;;;;;;;10.00;10.00;;;;;16.13;47.62;100994.19;4939159;28;45524;-63
2023/04/10 09:55:43;;;;;;;;;8.80;8.40;;;;;16.20;47.75;100996.84;4973010;28;45403;-64
2023/04/10 09:58:09;;;;;;;;;9.25;8.50;;;;;16.22;47.04;100997.41;4972183;28;45491;-62
2023/04/10 10:00:38;;;;;;;;;8.50;8.50;;;;;16.29;47.45;100988.13;4930908;28;47737;-64
2023/04/10 10:03:05;;;;;;;;;7.20;7.20;;;;;16.30;46.96;100987.06;4962611;28;45514;-63
2023/04/10 10:05:31;;;;;;;;;7.60;7.60;;;;;15.95;46.76;100945.34;4971858;28;45829;-63
2023/04/10 10:07:57;;;;;;;;;7.80;6.80;;;;;16.25;47.24;100990.56;4956358;28;45715;-63
2023/04/10 10:10:23;;;;;;;;;7.25;7.25;;;;;16.25;46.80;100985.88;4955415;28;48009;-63
2023/04/10 10:12:55;;;;;;;;;8.20;8.20;;;;;16.33;47.16;101008.72;4939612;28;45498;-63
2023/04/10 10:15:35;;;;;;;;;10.20;10.20;;;;;16.25;47.04;100985.03;4957850;28;45305;-62
2023/04/10 10:18:27;;;;;;;;;9.00;9.00;;;;;16.11;47.31;100971.44;4976945;28;45570;-63
2023/04/10 10:20:52;;;;;;;;;10.00;10.00;;;;;16.21;47.53;100970.81;4975177;28;45410;-63
2023/04/10 10:23:18;;;;;;;;;9.00;9.00;;;;;16.15;47.58;100970.94;4974163;28;45423;-61
2023/04/10 10:25:44;;;;;;;;;9.00;9.00;;;;;16.20;47.60;100987.66;4974870;28;45488;-62
2023/04/10 10:28:11;;;;;;;;;10.60;9.60;;;;;16.22;47.66;100991.88;4976235;28;45403;-61
2023/04/10 10:30:37;;;;;;;;;10.60;10.20;;;;;16.26;47.37;100982.00;4974535;28;45507;-62
2023/04/10 10:33:05;;;;;;;;;8.00;7.00;;;;;16.07;47.19;100941.72;4957453;28;45924;-63
2023/04/10 10:35:31;;;;;;;;;9.80;9.80;;;;;16.24;47.21;100973.09;4987167;28;45475;-62
2023/04/10 10:38:00;;;;;;;;;11.00;10.00;;;;;16.30;47.12;100971.28;4956280;28;45383;-63
2023/04/10 10:40:48;;;;;;;;;9.20;8.60;;;;;16.29;46.92;100963.22;4981090;28;46049;-63
2023/04/10 10:43:23;;;;;;;;;10.20;7.40;;;;;16.31;47.06;100958.25;4977750;28;45498;-63
2023/04/10 10:45:59;;;;;;;;;14.20;11.00;;;;;16.26;47.01;100943.25;4953996;28;45443;-61
2023/04/10 10:48:25;;;;;;;;;11.40;9.20;;;;;16.46;46.67;100955.81;4973428;28;45626;-62
2023/04/10 10:50:52;;;;;;;;;7.00;7.00;;;;;16.56;46.21;100952.41;4965891;28;46440;-62
2023/04/10 10:53:47;;;;;;;;;7.00;7.00;;;;;16.63;45.92;100955.03;4966200;28;45308;-63
2023/04/10 10:56:19;;;;;;;;;6.40;6.40;;;;;16.78;45.94;100958.09;4980744;28;45408;-63
2023/04/10 10:58:51;;;;;;;;;9.20;6.00;;;;;16.82;45.61;100949.28;4974607;28;45629;-64
2023/04/10 11:01:21;;;;;;;;;11.40;10.20;;;;;16.88;45.07;100943.59;4947958;28;46629;-62
2023/04/10 11:03:47;;;;;;;;;8.80;7.80;;;;;16.83;45.01;100901.91;4963385;28;45423;-62
2023/04/10 11:06:41;;;;;;;;;12.75;11.75;;;;;17.24;44.48;100946.16;4991433;28;45456;-62
2023/04/10 11:09:07;;;;;;;;;13.40;10.40;;;;;17.41;44.11;100940.63;4959938;28;45979;-63
2023/04/10 11:11:36;;;;;;;;;9.00;7.75;;;;;17.46;43.78;100949.00;4989453;28;45874;-62
2023/04/10 11:14:05;;;;;;;;;7.20;7.20;;;;;17.44;42.96;100937.31;4959114;28;45518;-62